Time;durP1;ratioP1;P1;durP2;ratioP2;P2;SDS_P1;SDS_P2;PMS_P1;PMS_P2;Temp;Humidity;BMP_temperature;BMP_pressure;BME280_temperature;BME280_humidity;BME280_pressure;Samples;Min_cycle;Max_cycle;Signal;HPM_P1;HPM_P2
2022/08/27 00:00:31;;;;;;;3.20;1.80;;;17.40;99.90;;;;;;5006302;28;20061;-67
2022/08/27 00:02:58;;;;;;;4.53;1.90;;;17.30;99.90;;;;;;4988467;28;20061;-67
2022/08/27 00:05:23;;;;;;;5.07;1.85;;;17.30;99.90;;;;;;4992814;28;20049;-67
2022/08/27 00:07:49;;;;;;;3.63;1.83;;;17.30;99.90;;;;;;5004206;28;20072;-67
2022/08/27 00:10:19;;;;;;;5.15;1.60;;;17.30;99.90;;;;;;4989269;28;20220;-67
2022/08/27 00:12:47;;;;;;;8.52;2.03;;;17.30;99.90;;;;;;5003724;28;20495;-67
2022/08/27 00:15:14;;;;;;;5.10;2.17;;;17.20;99.90;;;;;;5005239;28;20062;-67
2022/08/27 00:17:40;;;;;;;4.10;1.70;;;17.30;99.90;;;;;;4993563;28;20414;-67
2022/08/27 00:20:07;;;;;;;5.20;2.63;;;17.20;99.90;;;;;;4989602;28;20042;-67
2022/08/27 00:22:33;;;;;;;4.03;2.00;;;17.20;99.90;;;;;;5002898;28;20053;-67
2022/08/27 00:25:00;;;;;;;6.43;2.10;;;17.20;99.90;;;;;;5006262;28;20038;-67
2022/08/27 00:27:25;;;;;;;4.70;2.10;;;17.10;99.90;;;;;;5006814;28;20048;-67
2022/08/27 00:29:51;;;;;;;6.28;2.00;;;17.10;99.90;;;;;;5012520;28;20033;-67
2022/08/27 00:32:17;;;;;;;5.53;1.98;;;17.10;99.90;;;;;;5009560;28;20050;-67
2022/08/27 00:34:43;;;;;;;4.82;2.00;;;17.10;99.90;;;;;;5012432;28;20054;-67
2022/08/27 00:37:09;;;;;;;6.90;1.90;;;17.10;99.90;;;;;;5009770;28;20193;-67
2022/08/27 00:39:35;;;;;;;5.53;2.08;;;17.00;99.90;;;;;;5007003;28;20033;-66
2022/08/27 00:42:03;;;;;;;4.22;2.15;;;17.00;99.90;;;;;;4992658;28;20038;-67
2022/08/27 00:44:29;;;;;;;3.70;1.80;;;17.00;99.90;;;;;;4995193;28;20418;-67
2022/08/27 00:47:00;;;;;;;6.00;2.33;;;17.00;99.90;;;;;;4985284;28;20053;-67
2022/08/27 00:49:42;;;;;;;3.80;1.80;;;16.90;99.90;;;;;;5007925;28;20077;-67
2022/08/27 00:52:20;;;;;;;4.75;1.73;;;16.90;99.90;;;;;;5009864;28;20034;-67
2022/08/27 00:54:47;;;;;;;7.18;2.05;;;16.90;99.90;;;;;;5012899;28;20565;-67
2022/08/27 00:57:14;;;;;;;6.55;2.10;;;16.80;99.90;;;;;;5009097;28;20121;-67
2022/08/27 00:59:42;;;;;;;7.25;2.10;;;16.80;99.90;;;;;;4993572;28;20072;-67
2022/08/27 01:02:19;;;;;;;6.05;2.08;;;16.80;99.90;;;;;;5007002;28;20502;-67
2022/08/27 01:04:50;;;;;;;3.55;1.98;;;16.80;99.90;;;;;;4999771;28;20042;-67
2022/08/27 01:07:16;;;;;;;6.55;2.72;;;16.70;99.90;;;;;;5008695;28;20075;-67
2022/08/27 01:09:42;;;;;;;4.93;2.28;;;16.70;99.90;;;;;;5007336;28;20045;-67
2022/08/27 01:12:10;;;;;;;2.92;1.98;;;16.70;99.90;;;;;;5009449;28;20048;-67
2022/08/27 01:14:37;;;;;;;11.70;2.65;;;16.70;99.90;;;;;;4992165;28;20033;-67
2022/08/27 01:17:05;;;;;;;7.47;2.00;;;16.60;99.90;;;;;;5009185;28;20053;-67
2022/08/27 01:19:36;;;;;;;7.13;2.30;;;16.60;99.90;;;;;;5009222;28;20092;-67
2022/08/27 01:22:06;;;;;;;7.15;2.58;;;16.50;99.90;;;;;;5007503;28;20604;-67
2022/08/27 01:24:42;;;;;;;4.40;2.47;;;16.50;99.90;;;;;;4991063;28;20041;-67
2022/08/27 01:27:11;;;;;;;3.97;2.30;;;16.50;99.90;;;;;;5008831;28;20046;-67
2022/08/27 01:29:37;;;;;;;4.40;2.17;;;16.50;99.90;;;;;;5005540;28;20046;-67
2022/08/27 01:32:14;;;;;;;10.55;2.30;;;16.40;99.90;;;;;;4990292;28;20042;-67
2022/08/27 01:34:40;;;;;;;5.35;2.10;;;16.40;99.90;;;;;;5005411;28;20049;-67
2022/08/27 01:37:06;;;;;;;4.88;2.40;;;16.40;99.90;;;;;;5008095;28;20133;-67
2022/08/27 01:39:38;;;;;;;8.35;2.50;;;16.40;99.90;;;;;;5004746;28;20091;-67
2022/08/27 01:42:08;;;;;;;4.65;2.22;;;16.40;99.90;;;;;;5007920;28;20046;-67
2022/08/27 01:44:55;;;;;;;6.15;2.05;;;16.30;99.90;;;;;;4988028;28;20188;-67
2022/08/27 01:47:23;;;;;;;5.47;2.58;;;16.30;99.90;;;;;;5009161;28;20038;-67
2022/08/27 01:49:49;;;;;;;3.05;1.85;;;16.30;99.90;;;;;;4995038;28;20034;-67
2022/08/27 01:52:18;;;;;;;4.65;1.88;;;16.30;99.90;;;;;;5009445;28;20042;-67
2022/08/27 01:54:45;;;;;;;7.32;2.17;;;16.30;99.90;;;;;;5010653;28;20045;-67
2022/08/27 01:57:11;;;;;;;6.07;1.95;;;16.20;99.90;;;;;;5009266;28;20099;-67
2022/08/27 01:59:38;;;;;;;8.48;2.30;;;16.20;99.90;;;;;;5006968;28;20029;-67
2022/08/27 02:02:05;;;;;;;6.03;2.20;;;16.20;99.90;;;;;;4992710;28;20284;-66
2022/08/27 02:04:31;;;;;;;4.38;2.30;;;16.20;99.90;;;;;;5006336;28;20049;-67
2022/08/27 02:06:57;;;;;;;4.75;2.15;;;16.10;99.90;;;;;;5008748;28;20809;-67
2022/08/27 02:09:24;;;;;;;5.40;2.03;;;16.10;99.90;;;;;;4995045;28;20414;-67
2022/08/27 02:11:49;;;;;;;6.13;2.47;;;16.10;99.90;;;;;;5007558;28;20602;-67
2022/08/27 02:14:15;;;;;;;5.60;1.88;;;16.10;99.90;;;;;;4995109;28;20049;-66
2022/08/27 02:16:41;;;;;;;5.50;2.50;;;16.10;99.90;;;;;;5007292;28;20560;-67
2022/08/27 02:19:07;;;;;;;8.07;2.90;;;16.10;99.90;;;;;;5006951;28;20542;-67
2022/08/27 02:21:33;;;;;;;5.68;2.15;;;16.10;99.90;;;;;;5006481;28;20600;-66
2022/08/27 02:23:59;;;;;;;6.60;2.70;;;16.10;99.90;;;;;;4993979;28;20045;-67
2022/08/27 02:26:26;;;;;;;4.82;2.00;;;16.10;99.90;;;;;;5007778;28;20038;-67
2022/08/27 02:28:53;;;;;;;5.43;2.78;;;16.10;99.90;;;;;;4992735;28;20050;-67
2022/08/27 02:31:19;;;;;;;3.78;1.98;;;16.10;99.90;;;;;;5003255;28;20068;-67
2022/08/27 02:33:45;;;;;;;4.28;1.90;;;16.10;99.90;;;;;;4994579;28;20053;-67
2022/08/27 02:36:11;;;;;;;7.22;1.75;;;16.10;99.90;;;;;;5005212;28;20034;-66
2022/08/27 02:38:36;;;;;;;6.18;1.88;;;16.10;99.90;;;;;;5006499;28;20025;-67
2022/08/27 02:41:02;;;;;;;3.30;2.00;;;16.10;99.90;;;;;;5005364;28;20033;-67
2022/08/27 02:43:28;;;;;;;4.95;2.08;;;16.00;99.90;;;;;;5006868;28;20049;-67
2022/08/27 02:45:54;;;;;;;9.98;2.78;;;16.10;99.90;;;;;;5005264;28;20042;-67
2022/08/27 02:48:21;;;;;;;4.07;1.77;;;16.10;99.90;;;;;;4991316;28;20076;-67
2022/08/27 02:50:47;;;;;;;6.43;2.30;;;16.10;99.90;;;;;;5007667;28;20417;-67
2022/08/27 02:53:13;;;;;;;4.68;1.90;;;16.10;99.90;;;;;;5009494;28;20069;-67
2022/08/27 02:55:38;;;;;;;5.32;2.10;;;16.10;99.90;;;;;;4991943;28;20494;-67
2022/08/27 02:58:04;;;;;;;6.75;2.20;;;16.00;99.90;;;;;;4994174;28;20435;-67
2022/08/27 03:00:30;;;;;;;4.38;2.00;;;16.00;99.90;;;;;;5005657;28;20060;-67
2022/08/27 03:02:56;;;;;;;6.45;1.67;;;16.00;99.90;;;;;;4998078;28;20041;-67
2022/08/27 03:05:22;;;;;;;5.75;2.00;;;16.00;99.90;;;;;;5006963;28;20050;-67
2022/08/27 03:07:48;;;;;;;4.80;2.03;;;15.90;99.90;;;;;;5006715;28;20124;-67
2022/08/27 03:10:16;;;;;;;5.55;2.40;;;15.90;99.90;;;;;;5007080;28;20117;-66
2022/08/27 03:12:43;;;;;;;5.38;1.88;;;15.80;99.90;;;;;;5005358;28;20044;-67
2022/08/27 03:15:13;;;;;;;6.55;1.88;;;15.80;99.90;;;;;;5008400;28;20029;-66
2022/08/27 03:20:24;;;;;;;4.50;1.90;;;15.80;99.90;;;;;;5005476;28;20045;-66
2022/08/27 03:22:50;;;;;;;5.50;1.77;;;15.70;99.90;;;;;;5005889;28;20072;-67
2022/08/27 03:25:16;;;;;;;7.72;2.10;;;15.70;99.90;;;;;;5006974;28;20041;-67
2022/08/27 03:27:43;;;;;;;5.00;1.88;;;15.70;99.90;;;;;;5004177;28;20064;-67
2022/08/27 03:30:12;;;;;;;6.22;2.35;;;15.60;99.90;;;;;;5006668;28;20040;-67
2022/08/27 03:32:39;;;;;;;2.80;2.17;;;15.50;99.90;;;;;;5008379;28;20061;-67
2022/08/27 03:35:05;;;;;;;5.95;2.45;;;15.50;99.90;;;;;;4988526;28;20773;-67
2022/08/27 03:37:31;;;;;;;5.20;2.17;;;15.50;99.90;;;;;;5007609;28;20402;-67
2022/08/27 03:39:56;;;;;;;6.65;2.00;;;15.40;99.90;;;;;;4989289;28;20038;-66
2022/08/27 03:42:22;;;;;;;3.83;2.28;;;15.40;99.90;;;;;;4986828;28;20073;-67
2022/08/27 03:44:48;;;;;;;5.75;1.77;;;15.40;99.90;;;;;;5004916;28;20037;-66
2022/08/27 03:47:14;;;;;;;5.70;2.20;;;15.30;99.90;;;;;;5003562;28;20030;-67
2022/08/27 03:49:40;;;;;;;5.25;2.45;;;15.30;99.90;;;;;;5007606;28;20030;-67
2022/08/27 03:52:07;;;;;;;4.40;1.90;;;15.30;99.90;;;;;;5005143;28;20479;-66
2022/08/27 03:54:37;;;;;;;5.55;2.03;;;15.30;99.90;;;;;;5012897;28;20038;-67
2022/08/27 03:57:04;;;;;;;5.22;1.92;;;15.30;99.90;;;;;;5001923;28;20049;-67
2022/08/27 03:59:29;;;;;;;4.35;1.90;;;15.30;99.90;;;;;;5007406;28;20418;-67
2022/08/27 04:01:56;;;;;;;7.47;2.38;;;15.30;99.90;;;;;;5007194;28;20037;-67
2022/08/27 04:04:22;;;;;;;5.47;2.13;;;15.30;99.90;;;;;;5014353;28;20111;-67
2022/08/27 04:06:49;;;;;;;5.80;2.35;;;15.30;99.90;;;;;;5012957;28;20068;-67
2022/08/27 04:09:15;;;;;;;6.93;2.42;;;15.30;99.90;;;;;;5020323;28;20071;-67
2022/08/27 04:11:41;;;;;;;6.43;2.25;;;15.20;99.90;;;;;;4991921;28;20042;-67
2022/08/27 04:14:08;;;;;;;5.60;2.20;;;15.20;99.90;;;;;;5009238;28;20041;-67
2022/08/27 04:16:35;;;;;;;5.90;2.00;;;15.20;99.90;;;;;;5010377;28;20124;-66
2022/08/27 04:19:02;;;;;;;5.10;1.90;;;15.20;99.90;;;;;;4992491;28;20038;-67
2022/08/27 04:21:28;;;;;;;4.95;2.10;;;15.20;99.90;;;;;;5009018;28;20107;-67
2022/08/27 04:23:57;;;;;;;5.82;2.00;;;15.10;99.90;;;;;;5012966;28;20124;-67
2022/08/27 04:26:23;;;;;;;5.47;2.00;;;15.10;99.90;;;;;;5008541;28;20051;-67
2022/08/27 04:28:49;;;;;;;3.85;1.90;;;15.10;99.90;;;;;;5014167;28;20044;-67
2022/08/27 04:31:15;;;;;;;4.40;2.03;;;15.10;99.90;;;;;;4995851;28;20046;-67
2022/08/27 04:33:41;;;;;;;5.22;2.20;;;15.10;99.90;;;;;;5009297;28;20151;-67
2022/08/27 04:36:09;;;;;;;6.75;2.92;;;15.10;99.90;;;;;;5011498;28;20041;-67
2022/08/27 04:38:35;;;;;;;4.20;2.20;;;15.10;99.90;;;;;;4994049;28;20092;-67
2022/08/27 04:41:22;;;;;;;6.82;2.30;;;15.10;99.90;;;;;;5007702;28;20426;-67
2022/08/27 04:43:53;;;;;;;5.75;2.22;;;15.10;99.90;;;;;;5007138;28;20040;-67
2022/08/27 04:46:31;;;;;;;6.70;2.25;;;15.10;99.90;;;;;;5007825;28;20077;-66
2022/08/27 04:49:00;;;;;;;4.80;2.33;;;15.10;99.90;;;;;;5006769;28;20093;-66
2022/08/27 04:51:27;;;;;;;2.83;1.83;;;15.00;99.90;;;;;;5009821;28;20035;-66
2022/08/27 04:53:54;;;;;;;11.25;2.47;;;15.00;99.90;;;;;;5008239;28;20079;-66
2022/08/27 04:56:21;;;;;;;5.28;2.40;;;15.00;99.90;;;;;;5012441;28;20056;-67
2022/08/27 04:58:47;;;;;;;3.70;2.47;;;15.00;99.90;;;;;;5009505;28;20122;-66
2022/08/27 05:01:27;;;;;;;4.82;2.40;;;15.00;99.90;;;;;;4996534;28;20099;-66
2022/08/27 05:03:54;;;;;;;5.90;2.25;;;15.00;99.90;;;;;;5021108;28;20038;-67
2022/08/27 05:06:20;;;;;;;8.65;2.58;;;14.90;99.90;;;;;;5018839;28;20048;-66
2022/08/27 05:08:48;;;;;;;4.85;2.22;;;14.90;99.90;;;;;;5024971;28;20054;-66
2022/08/27 05:11:15;;;;;;;5.65;2.35;;;14.90;99.90;;;;;;5018289;28;20037;-67
2022/08/27 05:13:43;;;;;;;4.25;2.20;;;14.90;99.90;;;;;;5009214;28;20046;-67
2022/08/27 05:16:11;;;;;;;3.92;2.30;;;14.90;99.90;;;;;;5008014;28;20104;-67
2022/08/27 05:18:38;;;;;;;6.25;2.63;;;14.90;99.90;;;;;;5007295;28;20553;-67
2022/08/27 05:21:05;;;;;;;7.97;2.75;;;14.90;99.90;;;;;;5011808;28;20042;-66
2022/08/27 05:23:32;;;;;;;6.30;2.10;;;14.90;99.90;;;;;;5008692;28;20037;-66
2022/08/27 05:25:59;;;;;;;4.03;2.05;;;14.90;99.90;;;;;;4994834;28;20707;-67
2022/08/27 05:28:26;;;;;;;5.32;2.10;;;14.90;99.90;;;;;;5008970;28;20042;-67
2022/08/27 05:30:54;;;;;;;6.30;1.98;;;14.90;99.90;;;;;;5008488;28;20045;-67
2022/08/27 05:33:23;;;;;;;7.13;2.33;;;14.90;99.90;;;;;;4995624;28;20050;-66
2022/08/27 05:35:52;;;;;;;3.40;1.80;;;14.80;99.90;;;;;;5014846;28;20810;-67
2022/08/27 05:38:20;;;;;;;5.25;2.20;;;14.80;99.90;;;;;;4990344;28;20046;-66
2022/08/27 05:40:46;;;;;;;6.57;2.15;;;14.80;99.90;;;;;;5007286;28;20030;-66
2022/08/27 05:43:17;;;;;;;6.15;2.47;;;14.80;99.90;;;;;;5006026;28;20048;-66
2022/08/27 05:45:47;;;;;;;4.85;2.17;;;14.80;99.90;;;;;;5008532;28;20084;-66
2022/08/27 05:48:15;;;;;;;4.88;2.30;;;14.80;99.90;;;;;;5013754;28;20552;-66
2022/08/27 05:50:43;;;;;;;7.43;2.25;;;14.90;99.90;;;;;;4991744;28;20045;-66
2022/08/27 05:53:11;;;;;;;5.07;2.22;;;14.90;99.90;;;;;;5016741;28;20091;-66
2022/08/27 05:55:38;;;;;;;5.93;2.20;;;14.90;99.90;;;;;;5013230;28;20046;-66
2022/08/27 05:58:05;;;;;;;6.90;2.53;;;14.90;99.90;;;;;;4992925;28;20042;-66
2022/08/27 06:03:15;;;;;;;5.18;2.35;;;15.00;99.90;;;;;;4995353;28;20514;-67
2022/08/27 06:05:41;;;;;;;8.35;3.00;;;15.10;99.90;;;;;;5006029;28;20045;-67
2022/08/27 06:08:07;;;;;;;7.45;2.35;;;15.20;99.90;;;;;;4990361;28;20050;-67
2022/08/27 06:10:32;;;;;;;4.38;2.00;;;15.30;99.90;;;;;;5007952;28;20057;-67
2022/08/27 06:12:58;;;;;;;3.97;2.92;;;15.40;99.90;;;;;;4988815;28;20050;-66
2022/08/27 06:15:24;;;;;;;3.10;2.08;;;15.50;99.90;;;;;;4960813;28;20057;-66
2022/08/27 06:17:49;;;;;;;6.72;1.90;;;15.50;99.90;;;;;;4988282;28;20037;-67
2022/08/27 06:20:15;;;;;;;7.40;2.60;;;15.60;99.90;;;;;;5006209;28;20138;-66
2022/08/27 06:22:44;;;;;;;5.45;2.00;;;15.70;99.90;;;;;;4989725;28;20040;-66
2022/08/27 06:25:10;;;;;;;4.25;2.20;;;15.80;99.90;;;;;;5007760;28;20049;-67
2022/08/27 06:27:36;;;;;;;6.15;2.13;;;15.90;99.90;;;;;;5007002;28;20049;-66
2022/08/27 06:30:02;;;;;;;5.60;2.08;;;15.90;99.90;;;;;;5013259;28;20033;-66
2022/08/27 06:32:28;;;;;;;10.80;3.35;;;16.00;99.90;;;;;;4986563;28;20089;-67
2022/08/27 06:34:54;;;;;;;4.70;2.28;;;16.10;99.90;;;;;;5012068;28;20113;-67
2022/08/27 06:37:20;;;;;;;6.13;2.25;;;16.20;99.90;;;;;;5008880;28;20049;-66
2022/08/27 06:39:46;;;;;;;4.63;1.92;;;16.20;99.90;;;;;;5010325;28;20045;-67
2022/08/27 06:42:12;;;;;;;7.00;2.00;;;16.30;99.90;;;;;;5012743;28;20127;-66
2022/08/27 06:44:38;;;;;;;5.30;2.15;;;16.40;99.90;;;;;;4993135;28;20558;-67
2022/08/27 06:47:04;;;;;;;6.55;2.30;;;16.40;99.90;;;;;;5013393;28;20104;-67
2022/08/27 06:49:30;;;;;;;5.93;2.25;;;16.60;99.90;;;;;;4978881;28;20042;-66
2022/08/27 06:51:56;;;;;;;3.65;2.05;;;16.60;99.90;;;;;;5012753;28;20081;-67
2022/08/27 06:54:22;;;;;;;8.57;2.47;;;16.70;99.90;;;;;;5004367;28;20053;-67
2022/08/27 06:56:50;;;;;;;5.65;2.10;;;16.80;99.90;;;;;;4990353;28;20065;-66
2022/08/27 06:59:17;;;;;;;3.58;2.35;;;16.90;99.90;;;;;;4990264;28;20076;-67
2022/08/27 07:01:50;;;;;;;6.90;2.38;;;17.00;99.90;;;;;;5014112;28;20041;-66
2022/08/27 07:04:22;;;;;;;5.82;1.70;;;17.10;99.90;;;;;;4992421;28;20526;-67
2022/08/27 07:06:48;;;;;;;10.07;2.15;;;17.20;99.90;;;;;;5012891;28;20132;-67
2022/08/27 07:09:15;;;;;;;2.83;2.08;;;17.30;99.90;;;;;;4990851;28;20041;-67
2022/08/27 07:11:41;;;;;;;6.57;2.20;;;17.30;99.90;;;;;;5008790;28;20037;-67
2022/08/27 07:14:07;;;;;;;5.15;1.85;;;17.40;99.90;;;;;;5005306;28;20041;-66
2022/08/27 07:16:34;;;;;;;4.82;1.98;;;17.40;99.90;;;;;;5006900;28;20042;-67
2022/08/27 07:19:01;;;;;;;4.25;2.08;;;17.50;99.90;;;;;;5004526;28;20034;-66
2022/08/27 07:21:28;;;;;;;4.85;1.85;;;17.60;99.90;;;;;;4975338;28;20478;-67
2022/08/27 07:23:58;;;;;;;4.90;2.00;;;17.70;99.90;;;;;;5007038;28;20108;-67
2022/08/27 07:26:24;;;;;;;4.68;1.85;;;17.90;99.90;;;;;;5001799;28;20057;-67
2022/08/27 07:28:52;;;;;;;4.72;1.95;;;18.00;99.90;;;;;;5013409;28;20069;-65
2022/08/27 07:31:20;;;;;;;9.07;2.10;;;18.20;99.90;;;;;;5001888;28;20492;-65
2022/08/27 07:33:46;;;;;;;7.82;2.45;;;18.40;99.90;;;;;;4987785;28;20065;-67
2022/08/27 07:36:12;;;;;;;5.70;2.10;;;18.60;99.90;;;;;;5011180;28;20070;-67
2022/08/27 07:38:38;;;;;;;5.25;2.03;;;18.70;99.90;;;;;;5013936;28;20155;-67
2022/08/27 07:41:04;;;;;;;5.15;2.08;;;18.90;99.90;;;;;;4999005;28;20479;-67
2022/08/27 07:46:14;;;;;;;5.68;1.80;;;19.10;99.90;;;;;;5017085;28;20486;-67
2022/08/27 07:48:40;;;;;;;4.95;1.90;;;19.30;99.90;;;;;;5014512;28;20030;-68
2022/08/27 07:51:16;;;;;;;5.55;2.00;;;19.40;99.90;;;;;;5013582;28;20042;-67
2022/08/27 07:53:45;;;;;;;4.43;1.67;;;19.40;99.90;;;;;;4987366;28;20038;-68
2022/08/27 07:56:12;;;;;;;8.15;2.22;;;19.40;99.90;;;;;;5002857;28;20172;-67
2022/08/27 07:58:39;;;;;;;6.75;2.17;;;19.30;99.90;;;;;;5004478;28;20034;-67
2022/08/27 08:01:05;;;;;;;6.00;1.88;;;19.20;99.90;;;;;;4983139;28;20175;-67
2022/08/27 08:03:30;;;;;;;10.07;2.08;;;19.40;99.90;;;;;;5003444;28;20121;-67
2022/08/27 08:06:05;;;;;;;7.65;2.75;;;19.40;99.90;;;;;;5006023;28;20577;-67
2022/08/27 08:08:33;;;;;;;4.40;1.95;;;19.30;99.90;;;;;;5014087;28;20045;-67
2022/08/27 08:10:59;;;;;;;8.02;2.53;;;19.40;99.90;;;;;;5012520;28;20446;-67
2022/08/27 08:13:25;;;;;;;8.45;2.10;;;19.30;99.90;;;;;;4992293;28;20045;-67
2022/08/27 08:15:51;;;;;;;6.75;2.38;;;19.40;99.90;;;;;;4993657;28;20584;-68
2022/08/27 08:18:16;;;;;;;5.15;2.38;;;19.70;99.90;;;;;;5012734;28;20042;-67
2022/08/27 08:20:42;;;;;;;6.82;1.88;;;20.00;99.90;;;;;;5011937;28;20062;-67
2022/08/27 08:23:08;;;;;;;7.13;2.00;;;20.30;99.90;;;;;;5003632;28;20419;-67
2022/08/27 08:25:34;;;;;;;6.18;1.90;;;20.50;99.90;;;;;;5003421;28;20526;-67
2022/08/27 08:28:00;;;;;;;6.03;2.20;;;20.60;99.90;;;;;;5002785;28;20108;-67
2022/08/27 08:30:27;;;;;;;6.53;1.90;;;20.50;99.90;;;;;;5010094;28;20393;-67
2022/08/27 08:32:53;;;;;;;11.23;2.42;;;20.30;99.90;;;;;;5008630;28;20120;-67
2022/08/27 08:35:19;;;;;;;8.75;2.47;;;20.20;99.90;;;;;;5009955;28;20132;-67
2022/08/27 08:37:45;;;;;;;7.50;1.88;;;20.10;99.90;;;;;;5022653;28;20104;-67
2022/08/27 08:40:29;;;;;;;4.93;2.20;;;20.00;99.90;;;;;;5017261;28;20055;-67
2022/08/27 08:42:55;;;;;;;6.50;2.40;;;19.80;99.90;;;;;;4996214;28;20121;-67
2022/08/27 08:45:26;;;;;;;8.15;2.17;;;19.70;99.90;;;;;;5014531;28;20048;-67
2022/08/27 08:48:16;;;;;;;4.05;2.13;;;19.70;99.90;;;;;;4994025;28;20134;-67
2022/08/27 08:50:57;;;;;;;6.20;1.90;;;19.60;99.90;;;;;;5016129;28;20117;-67
2022/08/27 08:53:26;;;;;;;5.47;2.05;;;19.60;99.90;;;;;;5012384;28;20124;-67
2022/08/27 08:55:59;;;;;;;11.57;3.45;;;19.50;99.90;;;;;;5010973;28;20057;-67
2022/08/27 08:58:55;;;;;;;6.43;1.85;;;19.40;99.90;;;;;;4994876;28;20038;-67
2022/08/27 09:01:21;;;;;;;5.18;2.30;;;19.40;99.90;;;;;;4994181;28;20104;-67
2022/08/27 09:03:59;;;;;;;3.17;2.00;;;19.20;99.90;;;;;;5014732;28;20549;-67
2022/08/27 09:06:53;;;;;;;9.80;2.70;;;19.20;99.90;;;;;;5012632;28;20435;-67
2022/08/27 09:09:24;;;;;;;6.70;1.73;;;19.20;99.90;;;;;;4997784;28;20065;-67
2022/08/27 09:11:58;;;;;;;7.85;2.38;;;19.20;99.90;;;;;;5014312;28;20390;-67
2022/08/27 09:14:46;;;;;;;7.38;2.10;;;19.30;99.90;;;;;;5009627;28;20038;-67
2022/08/27 09:17:11;;;;;;;6.55;2.30;;;19.40;99.90;;;;;;5012916;28;20505;-67
2022/08/27 09:19:38;;;;;;;8.50;2.22;;;19.40;99.90;;;;;;4995014;28;20042;-67
2022/08/27 09:22:09;;;;;;;6.22;2.10;;;19.50;99.90;;;;;;4993186;28;20035;-67
2022/08/27 09:24:45;;;;;;;4.40;1.93;;;19.60;99.90;;;;;;5012823;28;20403;-67
2022/08/27 09:27:13;;;;;;;6.85;2.10;;;19.70;99.90;;;;;;4995796;28;20288;-67
2022/08/27 09:29:48;;;;;;;6.30;1.60;;;19.70;99.90;;;;;;5004235;28;20061;-67
2022/08/27 09:32:15;;;;;;;7.25;2.08;;;19.70;99.90;;;;;;5010302;28;20041;-67
2022/08/27 09:34:43;;;;;;;5.70;1.48;;;20.00;99.90;;;;;;4993285;28;20155;-67
2022/08/27 09:37:14;;;;;;;3.95;1.83;;;20.40;99.90;;;;;;4993601;28;20038;-67
2022/08/27 09:39:45;;;;;;;5.47;1.73;;;20.50;99.90;;;;;;5012998;28;20152;-67
2022/08/27 09:42:43;;;;;;;5.82;2.00;;;20.60;99.90;;;;;;5012353;28;20038;-67
2022/08/27 09:45:13;;;;;;;3.83;2.10;;;20.60;99.90;;;;;;5009962;28;20160;-67
2022/08/27 09:48:06;;;;;;;6.03;1.90;;;20.50;99.90;;;;;;4994381;28;20117;-67
2022/08/27 09:50:44;;;;;;;8.88;2.33;;;20.40;99.90;;;;;;4984796;28;20061;-67
2022/08/27 09:53:20;;;;;;;4.55;1.50;;;20.40;99.90;;;;;;4980825;28;20034;-67
2022/08/27 09:55:56;;;;;;;6.13;1.85;;;20.40;99.90;;;;;;5012044;28;20037;-67
2022/08/27 09:58:33;;;;;;;3.92;1.60;;;20.30;99.90;;;;;;4980861;28;20053;-68
2022/08/27 10:01:23;;;;;;;3.50;1.48;;;20.30;99.90;;;;;;5008289;28;20070;-68
2022/08/27 10:03:49;;;;;;;3.60;1.40;;;20.30;99.90;;;;;;5010610;28;20104;-67
2022/08/27 10:06:30;;;;;;;3.90;1.73;;;20.30;99.90;;;;;;5012917;28;20034;-67
2022/08/27 10:09:22;;;;;;;9.00;2.55;;;20.30;99.90;;;;;;5011030;28;20560;-67
2022/08/27 10:11:57;;;;;;;7.03;1.98;;;20.30;99.90;;;;;;5010141;28;20049;-67
2022/08/27 10:14:30;;;;;;;6.20;1.75;;;20.30;99.90;;;;;;5010691;28;20049;-67
2022/08/27 10:17:10;;;;;;;7.22;1.60;;;20.30;99.90;;;;;;5013345;28;20091;-68
2022/08/27 10:20:02;;;;;;;7.32;1.67;;;20.30;99.90;;;;;;4992939;28;20041;-67
2022/08/27 10:22:47;;;;;;;9.48;1.75;;;20.30;99.90;;;;;;5009439;28;20076;-67
2022/08/27 10:25:39;;;;;;;5.28;1.48;;;20.40;99.90;;;;;;5011572;28;20046;-67
2022/08/27 10:29:03;;;;;;;4.07;1.73;;;20.40;99.90;;;;;;4993734;28;20390;-67
2022/08/27 10:31:41;;;;;;;6.68;1.80;;;20.40;99.90;;;;;;4925703;29;20122;-67
2022/08/27 10:34:36;;;;;;;8.38;1.90;;;20.50;99.90;;;;;;5001716;28;20046;-67
2022/08/27 10:37:42;;;;;;;5.30;1.98;;;20.50;99.90;;;;;;5005637;28;20038;-67
2022/08/27 10:40:11;;;;;;;12.13;2.67;;;20.50;99.90;;;;;;5010112;28;20097;-67
2022/08/27 10:42:39;;;;;;;4.78;1.70;;;20.60;99.90;;;;;;5019785;28;20117;-67
2022/08/27 10:45:14;;;;;;;7.20;2.00;;;20.90;99.90;;;;;;5017752;28;20080;-67
2022/08/27 10:47:54;;;;;;;6.65;1.75;;;21.30;99.90;;;;;;5008052;28;20041;-66
2022/08/27 10:50:46;;;;;;;6.40;1.85;;;21.80;99.90;;;;;;4977559;28;20498;-66
2022/08/27 10:53:24;;;;;;;4.75;1.65;;;22.10;99.90;;;;;;5007957;28;20069;-66
2022/08/27 10:55:57;;;;;;;4.40;1.90;;;22.50;99.90;;;;;;4988838;28;20050;-65
2022/08/27 10:58:47;;;;;;;3.55;1.70;;;22.50;99.70;;;;;;5007374;28;20048;-67
2022/08/27 11:01:25;;;;;;;6.35;1.92;;;22.30;98.30;;;;;;5009713;28;20495;-67
2022/08/27 11:03:59;;;;;;;6.55;1.50;;;22.00;98.80;;;;;;5007079;28;21443;-66
2022/08/27 11:06:27;;;;;;;5.43;1.90;;;21.70;99.20;;;;;;4999393;28;20038;-66
2022/08/27 11:09:12;;;;;;;6.53;1.98;;;21.80;99.80;;;;;;5005269;28;20049;-66
2022/08/27 11:12:00;;;;;;;4.07;1.60;;;22.00;99.90;;;;;;5011187;28;20399;-66
2022/08/27 11:14:37;;;;;;;5.80;1.80;;;22.10;99.60;;;;;;5011301;28;20050;-66
2022/08/27 11:17:19;;;;;;;7.65;1.70;;;22.00;98.90;;;;;;4991559;28;20042;-66
2022/08/27 11:19:57;;;;;;;4.63;1.42;;;22.30;99.10;;;;;;4993309;28;20034;-66
2022/08/27 11:22:33;;;;;;;8.55;1.77;;;22.40;98.80;;;;;;5009453;28;20053;-66
2022/08/27 11:25:25;;;;;;;6.63;1.77;;;22.50;98.50;;;;;;5015054;28;20115;-66
2022/08/27 11:27:53;;;;;;;9.07;2.03;;;22.50;98.00;;;;;;4960839;28;20064;-66
2022/08/27 11:30:42;;;;;;;5.82;2.05;;;22.50;98.20;;;;;;4992752;28;20041;-66
2022/08/27 11:33:43;;;;;;;6.47;1.50;;;22.20;97.40;;;;;;5010452;28;20049;-67
2022/08/27 11:36:37;;;;;;;6.20;1.58;;;22.20;98.10;;;;;;5011244;28;20538;-66
2022/08/27 11:39:29;;;;;;;5.22;1.65;;;22.10;97.70;;;;;;5010562;28;20403;-66
2022/08/27 11:42:08;;;;;;;5.50;1.40;;;22.30;98.70;;;;;;4992927;28;20049;-66
2022/08/27 11:44:42;;;;;;;4.78;1.58;;;22.60;98.30;;;;;;4991956;28;20129;-66
2022/08/27 11:47:19;;;;;;;6.07;1.50;;;22.80;97.90;;;;;;5011374;28;20041;-66
2022/08/27 11:49:54;;;;;;;5.15;1.83;;;22.90;96.90;;;;;;5010199;28;20065;-66
2022/08/27 11:52:52;;;;;;;8.35;1.83;;;22.90;96.20;;;;;;4992591;28;20038;-67
2022/08/27 11:55:20;;;;;;;5.38;1.85;;;23.00;96.30;;;;;;4993240;28;20096;-66
2022/08/27 11:57:50;;;;;;;5.03;1.52;;;23.00;95.50;;;;;;5002637;28;20034;-66
2022/08/27 12:00:20;;;;;;;5.57;1.42;;;22.90;95.60;;;;;;5010119;28;20030;-66
2022/08/27 12:03:23;;;;;;;5.50;2.10;;;22.80;95.60;;;;;;5016691;28;20096;-66
2022/08/27 12:06:25;;;;;;;7.95;1.63;;;22.70;95.70;;;;;;5018471;28;20069;-66
2022/08/27 12:08:52;;;;;;;4.07;1.50;;;22.60;95.20;;;;;;5010591;28;20294;-66
2022/08/27 12:11:35;;;;;;;4.40;1.95;;;22.40;95.30;;;;;;5000574;28;20045;-67
2022/08/27 12:14:31;;;;;;;6.72;1.35;;;22.30;94.00;;;;;;5006413;28;20112;-67
2022/08/27 12:17:04;;;;;;;4.53;1.85;;;22.20;94.30;;;;;;5011930;28;20450;-66
2022/08/27 12:19:49;;;;;;;3.85;1.50;;;22.20;95.10;;;;;;4990879;28;20046;-66
2022/08/27 12:22:17;;;;;;;9.55;1.40;;;22.20;94.70;;;;;;5008118;28;20034;-66
2022/08/27 12:24:50;;;;;;;2.97;1.48;;;22.10;94.20;;;;;;5016314;28;20050;-66
2022/08/27 12:27:27;;;;;;;5.90;1.58;;;21.90;94.30;;;;;;5013117;28;20042;-66
2022/08/27 12:30:01;;;;;;;6.45;1.92;;;21.90;94.60;;;;;;5013980;28;20044;-66
2022/08/27 12:32:43;;;;;;;3.70;1.42;;;21.80;94.80;;;;;;4980496;28;20042;-66
2022/08/27 12:35:17;;;;;;;4.05;1.52;;;22.00;95.20;;;;;;5013124;28;20042;-66
2022/08/27 12:38:01;;;;;;;4.57;1.90;;;22.30;95.60;;;;;;4980668;28;20117;-67
2022/08/27 12:40:45;;;;;;;7.57;1.77;;;22.60;94.70;;;;;;4979556;28;20045;-67
2022/08/27 12:43:13;;;;;;;9.40;2.00;;;22.70;94.20;;;;;;4994187;28;20074;-67
2022/08/27 12:45:48;;;;;;;5.40;1.70;;;22.70;93.80;;;;;;5013041;28;20069;-66
2022/08/27 12:48:19;;;;;;;4.18;1.40;;;22.50;93.80;;;;;;5013223;28;20081;-66
2022/08/27 12:50:51;;;;;;;4.70;1.65;;;22.50;93.60;;;;;;4995185;28;20034;-67
2022/08/27 12:53:25;;;;;;;6.32;1.63;;;22.40;93.20;;;;;;4994815;28;20053;-66
2022/08/27 12:55:53;;;;;;;3.47;1.42;;;22.30;93.70;;;;;;5012596;28;20530;-67
2022/08/27 12:58:25;;;;;;;4.03;1.55;;;22.10;93.30;;;;;;5014860;28;20116;-67
2022/08/27 13:01:15;;;;;;;;;;;22.20;93.10;;;;;;5005979;28;20038;-67
2022/08/27 13:03:48;;;;;;;7.50;1.85;;;22.20;93.20;;;;;;4995854;28;20264;-67
2022/08/27 13:06:35;;;;;;;12.23;1.95;;;22.40;94.30;;;;;;4978263;28;20042;-67
2022/08/27 13:09:07;;;;;;;6.53;2.47;;;22.40;93.70;;;;;;4994826;28;20049;-66
2022/08/27 13:11:43;;;;;;;3.55;1.48;;;22.40;93.80;;;;;;4995897;28;20046;-66
2022/08/27 13:14:13;;;;;;;6.72;1.40;;;22.20;93.90;;;;;;5013700;28;20402;-67
2022/08/27 13:16:50;;;;;;;6.47;1.60;;;22.20;94.10;;;;;;5010536;28;20038;-67